sensor_id;sensor_type;location;lat;lon;timestamp;P1;durP1;ratioP1;P2;durP2;ratioP2
55069;SDS011;40967;52.070;8.596;2024-02-28T00:02:26;11.60;;;6.55;;
55069;SDS011;40967;52.070;8.596;2024-02-28T00:04:53;12.05;;;6.25;;
55069;SDS011;40967;52.070;8.596;2024-02-28T00:07:19;11.80;;;6.18;;
55069;SDS011;40967;52.070;8.596;2024-02-28T00:09:46;10.88;;;6.25;;
55069;SDS011;40967;52.070;8.596;2024-02-28T00:12:13;10.75;;;5.80;;
55069;SDS011;40967;52.070;8.596;2024-02-28T00:14:40;11.50;;;6.03;;
55069;SDS011;40967;52.070;8.596;2024-02-28T00:17:08;11.05;;;5.93;;
55069;SDS011;40967;52.070;8.596;2024-02-28T00:19:35;10.57;;;6.07;;
55069;SDS011;40967;52.070;8.596;2024-02-28T00:22:02;11.40;;;6.22;;
55069;SDS011;40967;52.070;8.596;2024-02-28T00:24:28;12.13;;;6.82;;
55069;SDS011;40967;52.070;8.596;2024-02-28T00:26:56;10.50;;;6.17;;
55069;SDS011;40967;52.070;8.596;2024-02-28T00:29:22;11.93;;;6.53;;
55069;SDS011;40967;52.070;8.596;2024-02-28T00:31:49;12.00;;;6.90;;
55069;SDS011;40967;52.070;8.596;2024-02-28T00:34:17;11.40;;;6.13;;
55069;SDS011;40967;52.070;8.596;2024-02-28T00:36:44;11.97;;;6.80;;
55069;SDS011;40967;52.070;8.596;2024-02-28T00:39:10;11.50;;;6.78;;
55069;SDS011;40967;52.070;8.596;2024-02-28T00:41:37;12.23;;;7.00;;
55069;SDS011;40967;52.070;8.596;2024-02-28T00:44:04;12.03;;;6.77;;
55069;SDS011;40967;52.070;8.596;2024-02-28T00:46:31;12.20;;;6.72;;
55069;SDS011;40967;52.070;8.596;2024-02-28T00:48:57;11.93;;;6.35;;
55069;SDS011;40967;52.070;8.596;2024-02-28T00:51:25;12.05;;;6.95;;
55069;SDS011;40967;52.070;8.596;2024-02-28T00:53:52;12.57;;;7.33;;
55069;SDS011;40967;52.070;8.596;2024-02-28T00:56:19;11.45;;;6.32;;
55069;SDS011;40967;52.070;8.596;2024-02-28T00:58:45;12.27;;;6.72;;
55069;SDS011;40967;52.070;8.596;2024-02-28T01:01:12;13.65;;;7.32;;
55069;SDS011;40967;52.070;8.596;2024-02-28T01:03:39;12.20;;;6.93;;
55069;SDS011;40967;52.070;8.596;2024-02-28T01:06:06;12.57;;;6.85;;
55069;SDS011;40967;52.070;8.596;2024-02-28T01:08:34;12.35;;;6.93;;
55069;SDS011;40967;52.070;8.596;2024-02-28T01:11:01;12.45;;;6.47;;
55069;SDS011;40967;52.070;8.596;2024-02-28T01:13:30;11.75;;;6.57;;
55069;SDS011;40967;52.070;8.596;2024-02-28T01:15:56;12.27;;;6.63;;
55069;SDS011;40967;52.070;8.596;2024-02-28T01:18:25;10.77;;;6.53;;
55069;SDS011;40967;52.070;8.596;2024-02-28T01:20:55;12.07;;;6.70;;
55069;SDS011;40967;52.070;8.596;2024-02-28T01:23:22;10.93;;;6.60;;
55069;SDS011;40967;52.070;8.596;2024-02-28T01:25:50;11.00;;;6.30;;
55069;SDS011;40967;52.070;8.596;2024-02-28T01:28:17;11.75;;;6.43;;
55069;SDS011;40967;52.070;8.596;2024-02-28T01:30:44;11.00;;;6.13;;
55069;SDS011;40967;52.070;8.596;2024-02-28T01:33:11;10.93;;;5.85;;
55069;SDS011;40967;52.070;8.596;2024-02-28T01:35:39;10.82;;;5.65;;
55069;SDS011;40967;52.070;8.596;2024-02-28T01:38:05;11.88;;;6.20;;
55069;SDS011;40967;52.070;8.596;2024-02-28T01:40:32;10.95;;;5.90;;
55069;SDS011;40967;52.070;8.596;2024-02-28T01:43:03;10.87;;;6.10;;
55069;SDS011;40967;52.070;8.596;2024-02-28T01:45:30;11.43;;;6.35;;
55069;SDS011;40967;52.070;8.596;2024-02-28T01:47:57;12.47;;;6.73;;
55069;SDS011;40967;52.070;8.596;2024-02-28T01:50:24;13.60;;;7.78;;
55069;SDS011;40967;52.070;8.596;2024-02-28T01:52:50;12.32;;;6.90;;
55069;SDS011;40967;52.070;8.596;2024-02-28T01:55:17;12.57;;;6.80;;
55069;SDS011;40967;52.070;8.596;2024-02-28T01:57:44;13.95;;;7.20;;
55069;SDS011;40967;52.070;8.596;2024-02-28T02:00:13;12.20;;;6.63;;
55069;SDS011;40967;52.070;8.596;2024-02-28T02:02:41;12.57;;;7.07;;
55069;SDS011;40967;52.070;8.596;2024-02-28T02:05:09;13.63;;;7.00;;
55069;SDS011;40967;52.070;8.596;2024-02-28T02:07:41;13.75;;;7.80;;
55069;SDS011;40967;52.070;8.596;2024-02-28T02:10:08;17.25;;;9.00;;
55069;SDS011;40967;52.070;8.596;2024-02-28T02:12:37;15.60;;;8.25;;
55069;SDS011;40967;52.070;8.596;2024-02-28T02:15:04;13.97;;;7.77;;
55069;SDS011;40967;52.070;8.596;2024-02-28T02:17:32;13.95;;;7.38;;
55069;SDS011;40967;52.070;8.596;2024-02-28T02:19:59;13.38;;;7.13;;
55069;SDS011;40967;52.070;8.596;2024-02-28T02:22:27;11.93;;;6.97;;
55069;SDS011;40967;52.070;8.596;2024-02-28T02:24:57;12.93;;;7.17;;
55069;SDS011;40967;52.070;8.596;2024-02-28T02:27:24;13.68;;;7.30;;
55069;SDS011;40967;52.070;8.596;2024-02-28T02:29:51;14.20;;;7.80;;
55069;SDS011;40967;52.070;8.596;2024-02-28T02:32:18;13.75;;;7.55;;
55069;SDS011;40967;52.070;8.596;2024-02-28T02:34:44;14.18;;;8.40;;
55069;SDS011;40967;52.070;8.596;2024-02-28T02:37:11;13.52;;;6.90;;
55069;SDS011;40967;52.070;8.596;2024-02-28T02:39:38;12.30;;;6.80;;
55069;SDS011;40967;52.070;8.596;2024-02-28T02:42:09;13.02;;;7.25;;
55069;SDS011;40967;52.070;8.596;2024-02-28T02:44:38;12.90;;;6.88;;
55069;SDS011;40967;52.070;8.596;2024-02-28T02:47:05;13.15;;;7.35;;
55069;SDS011;40967;52.070;8.596;2024-02-28T02:49:32;13.15;;;7.13;;
55069;SDS011;40967;52.070;8.596;2024-02-28T02:51:58;12.77;;;6.77;;
55069;SDS011;40967;52.070;8.596;2024-02-28T02:54:25;12.93;;;7.05;;
55069;SDS011;40967;52.070;8.596;2024-02-28T02:56:51;13.27;;;7.07;;
55069;SDS011;40967;52.070;8.596;2024-02-28T02:59:20;13.87;;;7.63;;
55069;SDS011;40967;52.070;8.596;2024-02-28T03:01:48;13.63;;;7.53;;
55069;SDS011;40967;52.070;8.596;2024-02-28T03:04:15;13.02;;;6.97;;
55069;SDS011;40967;52.070;8.596;2024-02-28T03:06:42;12.82;;;6.90;;
55069;SDS011;40967;52.070;8.596;2024-02-28T03:09:09;11.98;;;6.53;;
55069;SDS011;40967;52.070;8.596;2024-02-28T03:11:35;13.23;;;7.10;;
55069;SDS011;40967;52.070;8.596;2024-02-28T03:14:03;13.43;;;7.25;;
55069;SDS011;40967;52.070;8.596;2024-02-28T03:16:31;13.10;;;7.10;;
55069;SDS011;40967;52.070;8.596;2024-02-28T03:19:02;12.52;;;7.07;;
55069;SDS011;40967;52.070;8.596;2024-02-28T03:21:29;12.60;;;7.30;;
55069;SDS011;40967;52.070;8.596;2024-02-28T03:23:56;14.48;;;7.38;;
55069;SDS011;40967;52.070;8.596;2024-02-28T03:26:22;13.13;;;7.25;;
55069;SDS011;40967;52.070;8.596;2024-02-28T03:28:49;13.07;;;7.60;;
55069;SDS011;40967;52.070;8.596;2024-02-28T03:31:16;11.98;;;6.53;;
55069;SDS011;40967;52.070;8.596;2024-02-28T03:33:44;13.43;;;6.93;;
55069;SDS011;40967;52.070;8.596;2024-02-28T03:36:12;12.35;;;6.43;;
55069;SDS011;40967;52.070;8.596;2024-02-28T03:38:38;11.52;;;6.43;;
55069;SDS011;40967;52.070;8.596;2024-02-28T03:41:06;13.68;;;7.32;;
55069;SDS011;40967;52.070;8.596;2024-02-28T03:43:32;13.45;;;7.15;;
55069;SDS011;40967;52.070;8.596;2024-02-28T03:45:59;13.43;;;7.18;;
55069;SDS011;40967;52.070;8.596;2024-02-28T03:48:26;13.60;;;7.38;;
55069;SDS011;40967;52.070;8.596;2024-02-28T03:50:54;12.18;;;6.90;;
55069;SDS011;40967;52.070;8.596;2024-02-28T03:53:20;13.20;;;7.10;;
55069;SDS011;40967;52.070;8.596;2024-02-28T03:55:48;13.70;;;7.57;;
55069;SDS011;40967;52.070;8.596;2024-02-28T03:58:16;12.52;;;6.60;;
55069;SDS011;40967;52.070;8.596;2024-02-28T04:00:42;13.45;;;7.63;;
55069;SDS011;40967;52.070;8.596;2024-02-28T04:03:11;13.27;;;7.10;;
55069;SDS011;40967;52.070;8.596;2024-02-28T04:05:39;13.32;;;7.30;;
55069;SDS011;40967;52.070;8.596;2024-02-28T04:08:08;13.13;;;7.00;;
55069;SDS011;40967;52.070;8.596;2024-02-28T04:10:35;13.82;;;7.35;;
55069;SDS011;40967;52.070;8.596;2024-02-28T04:13:04;13.43;;;7.65;;
55069;SDS011;40967;52.070;8.596;2024-02-28T04:15:31;12.13;;;6.85;;
55069;SDS011;40967;52.070;8.596;2024-02-28T04:17:58;13.32;;;7.50;;
55069;SDS011;40967;52.070;8.596;2024-02-28T04:20:25;11.80;;;6.68;;
55069;SDS011;40967;52.070;8.596;2024-02-28T04:22:52;13.13;;;7.28;;
55069;SDS011;40967;52.070;8.596;2024-02-28T04:25:20;11.55;;;6.80;;
55069;SDS011;40967;52.070;8.596;2024-02-28T04:27:47;12.18;;;6.80;;
55069;SDS011;40967;52.070;8.596;2024-02-28T04:30:14;13.68;;;7.03;;
55069;SDS011;40967;52.070;8.596;2024-02-28T04:32:41;12.35;;;6.70;;
55069;SDS011;40967;52.070;8.596;2024-02-28T04:35:08;13.18;;;7.40;;
55069;SDS011;40967;52.070;8.596;2024-02-28T04:37:35;12.45;;;6.63;;
55069;SDS011;40967;52.070;8.596;2024-02-28T04:40:02;13.60;;;7.28;;
55069;SDS011;40967;52.070;8.596;2024-02-28T04:42:30;13.65;;;7.72;;
55069;SDS011;40967;52.070;8.596;2024-02-28T04:44:57;13.07;;;7.35;;
55069;SDS011;40967;52.070;8.596;2024-02-28T04:47:24;13.77;;;7.57;;
55069;SDS011;40967;52.070;8.596;2024-02-28T04:49:50;13.98;;;7.35;;
55069;SDS011;40967;52.070;8.596;2024-02-28T04:52:17;13.07;;;7.20;;
55069;SDS011;40967;52.070;8.596;2024-02-28T04:54:44;11.77;;;7.10;;
55069;SDS011;40967;52.070;8.596;2024-02-28T04:57:11;12.80;;;7.20;;
55069;SDS011;40967;52.070;8.596;2024-02-28T04:59:39;11.63;;;6.60;;
55069;SDS011;40967;52.070;8.596;2024-02-28T05:02:07;11.85;;;6.75;;
55069;SDS011;40967;52.070;8.596;2024-02-28T05:04:34;13.20;;;7.75;;
55069;SDS011;40967;52.070;8.596;2024-02-28T05:07:00;12.50;;;7.10;;
55069;SDS011;40967;52.070;8.596;2024-02-28T05:09:28;13.85;;;7.82;;
55069;SDS011;40967;52.070;8.596;2024-02-28T05:11:57;15.65;;;8.10;;
55069;SDS011;40967;52.070;8.596;2024-02-28T05:14:38;13.13;;;7.63;;
55069;SDS011;40967;52.070;8.596;2024-02-28T05:17:05;14.65;;;7.43;;
55069;SDS011;40967;52.070;8.596;2024-02-28T05:19:34;14.18;;;7.60;;
55069;SDS011;40967;52.070;8.596;2024-02-28T05:22:01;14.88;;;8.32;;
55069;SDS011;40967;52.070;8.596;2024-02-28T05:24:28;14.40;;;8.00;;
55069;SDS011;40967;52.070;8.596;2024-02-28T05:26:55;16.05;;;8.68;;
55069;SDS011;40967;52.070;8.596;2024-02-28T05:29:24;18.02;;;9.55;;
55069;SDS011;40967;52.070;8.596;2024-02-28T05:32:00;15.73;;;8.82;;
55069;SDS011;40967;52.070;8.596;2024-02-28T05:34:36;16.95;;;9.10;;
55069;SDS011;40967;52.070;8.596;2024-02-28T05:37:03;16.48;;;8.77;;
55069;SDS011;40967;52.070;8.596;2024-02-28T05:39:43;16.48;;;8.95;;
55069;SDS011;40967;52.070;8.596;2024-02-28T05:42:13;18.00;;;9.50;;
55069;SDS011;40967;52.070;8.596;2024-02-28T05:44:42;15.27;;;8.27;;
55069;SDS011;40967;52.070;8.596;2024-02-28T05:47:13;18.50;;;9.37;;
55069;SDS011;40967;52.070;8.596;2024-02-28T05:49:40;17.70;;;9.27;;
55069;SDS011;40967;52.070;8.596;2024-02-28T05:52:13;18.30;;;9.90;;
55069;SDS011;40967;52.070;8.596;2024-02-28T05:55:10;19.40;;;10.30;;
55069;SDS011;40967;52.070;8.596;2024-02-28T05:57:47;20.55;;;11.82;;
55069;SDS011;40967;52.070;8.596;2024-02-28T06:00:14;20.67;;;10.40;;
55069;SDS011;40967;52.070;8.596;2024-02-28T06:02:42;19.70;;;10.50;;
55069;SDS011;40967;52.070;8.596;2024-02-28T06:05:10;20.13;;;10.53;;
55069;SDS011;40967;52.070;8.596;2024-02-28T06:07:37;19.75;;;10.25;;
55069;SDS011;40967;52.070;8.596;2024-02-28T06:10:04;17.30;;;9.40;;
55069;SDS011;40967;52.070;8.596;2024-02-28T06:12:31;21.15;;;10.90;;
55069;SDS011;40967;52.070;8.596;2024-02-28T06:14:58;19.02;;;10.93;;
55069;SDS011;40967;52.070;8.596;2024-02-28T06:17:24;23.27;;;11.30;;
55069;SDS011;40967;52.070;8.596;2024-02-28T06:19:55;21.77;;;10.95;;
55069;SDS011;40967;52.070;8.596;2024-02-28T06:22:22;22.02;;;11.20;;
55069;SDS011;40967;52.070;8.596;2024-02-28T06:24:49;24.30;;;11.75;;
55069;SDS011;40967;52.070;8.596;2024-02-28T06:27:15;27.73;;;13.02;;
55069;SDS011;40967;52.070;8.596;2024-02-28T06:29:42;30.23;;;14.02;;
55069;SDS011;40967;52.070;8.596;2024-02-28T06:32:09;34.55;;;14.77;;
55069;SDS011;40967;52.070;8.596;2024-02-28T06:34:36;36.38;;;14.20;;
55069;SDS011;40967;52.070;8.596;2024-02-28T06:37:04;39.10;;;15.43;;
55069;SDS011;40967;52.070;8.596;2024-02-28T06:39:31;34.42;;;13.63;;
55069;SDS011;40967;52.070;8.596;2024-02-28T06:41:58;36.63;;;15.20;;
55069;SDS011;40967;52.070;8.596;2024-02-28T06:44:24;34.75;;;14.90;;
55069;SDS011;40967;52.070;8.596;2024-02-28T06:46:51;36.20;;;15.68;;
55069;SDS011;40967;52.070;8.596;2024-02-28T06:49:18;36.17;;;15.70;;
55069;SDS011;40967;52.070;8.596;2024-02-28T06:51:45;33.28;;;15.98;;
55069;SDS011;40967;52.070;8.596;2024-02-28T06:54:13;34.22;;;15.25;;
55069;SDS011;40967;52.070;8.596;2024-02-28T06:56:40;37.25;;;16.42;;
55069;SDS011;40967;52.070;8.596;2024-02-28T06:59:07;29.45;;;13.98;;
55069;SDS011;40967;52.070;8.596;2024-02-28T07:01:34;32.50;;;14.48;;
55069;SDS011;40967;52.070;8.596;2024-02-28T07:04:00;30.02;;;15.02;;
55069;SDS011;40967;52.070;8.596;2024-02-28T07:06:28;33.43;;;14.77;;
55069;SDS011;40967;52.070;8.596;2024-02-28T07:08:54;31.58;;;15.43;;
55069;SDS011;40967;52.070;8.596;2024-02-28T07:11:23;31.13;;;15.18;;
55069;SDS011;40967;52.070;8.596;2024-02-28T07:13:49;35.17;;;16.60;;
55069;SDS011;40967;52.070;8.596;2024-02-28T07:16:16;33.67;;;15.13;;
55069;SDS011;40967;52.070;8.596;2024-02-28T07:18:43;33.17;;;14.80;;
55069;SDS011;40967;52.070;8.596;2024-02-28T07:21:09;28.98;;;13.52;;
55069;SDS011;40967;52.070;8.596;2024-02-28T07:23:38;25.73;;;12.43;;
55069;SDS011;40967;52.070;8.596;2024-02-28T07:26:05;26.42;;;12.07;;
55069;SDS011;40967;52.070;8.596;2024-02-28T07:28:33;24.45;;;11.73;;
55069;SDS011;40967;52.070;8.596;2024-02-28T07:31:00;29.80;;;12.70;;
55069;SDS011;40967;52.070;8.596;2024-02-28T07:33:27;27.45;;;12.23;;
55069;SDS011;40967;52.070;8.596;2024-02-28T07:35:54;27.40;;;12.87;;
55069;SDS011;40967;52.070;8.596;2024-02-28T07:38:25;28.77;;;12.80;;
55069;SDS011;40967;52.070;8.596;2024-02-28T07:40:53;29.40;;;12.60;;
55069;SDS011;40967;52.070;8.596;2024-02-28T07:43:19;32.17;;;13.73;;
55069;SDS011;40967;52.070;8.596;2024-02-28T07:45:47;30.63;;;13.45;;
55069;SDS011;40967;52.070;8.596;2024-02-28T07:48:14;28.07;;;12.37;;
55069;SDS011;40967;52.070;8.596;2024-02-28T07:50:42;31.90;;;13.90;;
55069;SDS011;40967;52.070;8.596;2024-02-28T07:53:09;29.33;;;13.17;;
55069;SDS011;40967;52.070;8.596;2024-02-28T07:55:40;29.83;;;13.13;;
55069;SDS011;40967;52.070;8.596;2024-02-28T07:58:07;26.83;;;12.23;;
55069;SDS011;40967;52.070;8.596;2024-02-28T08:00:34;30.42;;;13.48;;
55069;SDS011;40967;52.070;8.596;2024-02-28T08:03:02;30.77;;;14.07;;
55069;SDS011;40967;52.070;8.596;2024-02-28T08:05:29;28.83;;;13.00;;
55069;SDS011;40967;52.070;8.596;2024-02-28T08:07:58;30.70;;;14.02;;
55069;SDS011;40967;52.070;8.596;2024-02-28T08:10:25;27.53;;;12.87;;
55069;SDS011;40967;52.070;8.596;2024-02-28T08:12:51;29.05;;;13.63;;
55069;SDS011;40967;52.070;8.596;2024-02-28T08:15:18;37.72;;;16.58;;
55069;SDS011;40967;52.070;8.596;2024-02-28T08:17:45;29.08;;;13.52;;
55069;SDS011;40967;52.070;8.596;2024-02-28T08:20:13;27.75;;;12.75;;
55069;SDS011;40967;52.070;8.596;2024-02-28T08:22:40;29.45;;;13.05;;
55069;SDS011;40967;52.070;8.596;2024-02-28T08:25:07;28.77;;;13.13;;
55069;SDS011;40967;52.070;8.596;2024-02-28T08:27:36;26.83;;;13.07;;
55069;SDS011;40967;52.070;8.596;2024-02-28T08:30:04;26.70;;;12.07;;
55069;SDS011;40967;52.070;8.596;2024-02-28T08:32:31;23.92;;;11.93;;
55069;SDS011;40967;52.070;8.596;2024-02-28T08:34:59;24.25;;;11.60;;
55069;SDS011;40967;52.070;8.596;2024-02-28T08:37:27;28.42;;;13.40;;
55069;SDS011;40967;52.070;8.596;2024-02-28T08:39:54;27.30;;;12.75;;
55069;SDS011;40967;52.070;8.596;2024-02-28T08:42:23;25.33;;;12.02;;
55069;SDS011;40967;52.070;8.596;2024-02-28T08:44:50;22.88;;;10.15;;
55069;SDS011;40967;52.070;8.596;2024-02-28T08:47:17;22.73;;;11.43;;
55069;SDS011;40967;52.070;8.596;2024-02-28T08:49:44;23.05;;;11.13;;
55069;SDS011;40967;52.070;8.596;2024-02-28T08:52:11;20.77;;;9.65;;
55069;SDS011;40967;52.070;8.596;2024-02-28T08:54:39;19.85;;;9.63;;
55069;SDS011;40967;52.070;8.596;2024-02-28T08:57:06;19.77;;;9.57;;
55069;SDS011;40967;52.070;8.596;2024-02-28T08:59:32;21.58;;;10.43;;
55069;SDS011;40967;52.070;8.596;2024-02-28T09:01:59;20.48;;;10.00;;
55069;SDS011;40967;52.070;8.596;2024-02-28T09:04:26;19.02;;;9.43;;
55069;SDS011;40967;52.070;8.596;2024-02-28T09:06:53;19.52;;;9.68;;
55069;SDS011;40967;52.070;8.596;2024-02-28T09:09:20;21.83;;;10.60;;
55069;SDS011;40967;52.070;8.596;2024-02-28T09:11:48;26.52;;;12.07;;
55069;SDS011;40967;52.070;8.596;2024-02-28T09:14:15;23.77;;;10.98;;
55069;SDS011;40967;52.070;8.596;2024-02-28T09:16:42;27.02;;;12.50;;
55069;SDS011;40967;52.070;8.596;2024-02-28T09:19:08;24.88;;;11.32;;
55069;SDS011;40967;52.070;8.596;2024-02-28T09:21:35;28.10;;;13.05;;
55069;SDS011;40967;52.070;8.596;2024-02-28T09:24:02;27.63;;;13.43;;
55069;SDS011;40967;52.070;8.596;2024-02-28T09:26:29;27.10;;;12.80;;
55069;SDS011;40967;52.070;8.596;2024-02-28T09:28:57;26.88;;;13.00;;
55069;SDS011;40967;52.070;8.596;2024-02-28T09:31:24;28.60;;;13.40;;
55069;SDS011;40967;52.070;8.596;2024-02-28T09:33:50;32.58;;;14.73;;
55069;SDS011;40967;52.070;8.596;2024-02-28T09:36:17;32.50;;;15.52;;
55069;SDS011;40967;52.070;8.596;2024-02-28T09:38:44;29.70;;;13.85;;
55069;SDS011;40967;52.070;8.596;2024-02-28T09:41:14;28.15;;;13.50;;
55069;SDS011;40967;52.070;8.596;2024-02-28T09:43:40;29.20;;;13.90;;
55069;SDS011;40967;52.070;8.596;2024-02-28T09:46:09;28.70;;;13.75;;
55069;SDS011;40967;52.070;8.596;2024-02-28T09:48:38;29.77;;;13.25;;
55069;SDS011;40967;52.070;8.596;2024-02-28T09:51:06;27.27;;;13.05;;
55069;SDS011;40967;52.070;8.596;2024-02-28T09:53:34;29.10;;;13.88;;
55069;SDS011;40967;52.070;8.596;2024-02-28T09:56:02;30.23;;;14.13;;
55069;SDS011;40967;52.070;8.596;2024-02-28T09:58:30;32.45;;;14.52;;
55069;SDS011;40967;52.070;8.596;2024-02-28T10:00:58;28.17;;;13.52;;
55069;SDS011;40967;52.070;8.596;2024-02-28T10:03:29;30.10;;;14.60;;
55069;SDS011;40967;52.070;8.596;2024-02-28T10:05:57;34.55;;;15.07;;
55069;SDS011;40967;52.070;8.596;2024-02-28T10:08:23;29.77;;;13.87;;
55069;SDS011;40967;52.070;8.596;2024-02-28T10:10:51;32.87;;;15.60;;
55069;SDS011;40967;52.070;8.596;2024-02-28T10:13:19;33.15;;;15.10;;
55069;SDS011;40967;52.070;8.596;2024-02-28T10:15:47;37.53;;;17.05;;
55069;SDS011;40967;52.070;8.596;2024-02-28T10:18:15;34.67;;;16.33;;
55069;SDS011;40967;52.070;8.596;2024-02-28T10:20:43;34.22;;;16.27;;
55069;SDS011;40967;52.070;8.596;2024-02-28T10:23:12;29.17;;;14.07;;
55069;SDS011;40967;52.070;8.596;2024-02-28T10:25:42;34.28;;;15.50;;
55069;SDS011;40967;52.070;8.596;2024-02-28T10:28:09;29.43;;;14.33;;
55069;SDS011;40967;52.070;8.596;2024-02-28T10:30:38;29.38;;;14.52;;
55069;SDS011;40967;52.070;8.596;2024-02-28T10:33:10;30.85;;;14.98;;
55069;SDS011;40967;52.070;8.596;2024-02-28T10:35:39;29.13;;;13.60;;
55069;SDS011;40967;52.070;8.596;2024-02-28T10:38:07;32.88;;;15.95;;
55069;SDS011;40967;52.070;8.596;2024-02-28T10:40:39;30.63;;;14.15;;
55069;SDS011;40967;52.070;8.596;2024-02-28T10:43:07;38.80;;;17.50;;
55069;SDS011;40967;52.070;8.596;2024-02-28T10:45:35;34.38;;;16.25;;
55069;SDS011;40967;52.070;8.596;2024-02-28T10:48:08;32.30;;;15.50;;
55069;SDS011;40967;52.070;8.596;2024-02-28T10:50:34;29.52;;;13.75;;
55069;SDS011;40967;52.070;8.596;2024-02-28T10:53:02;35.13;;;16.50;;
55069;SDS011;40967;52.070;8.596;2024-02-28T10:55:41;32.00;;;15.32;;
55069;SDS011;40967;52.070;8.596;2024-02-28T10:58:10;31.52;;;14.30;;
55069;SDS011;40967;52.070;8.596;2024-02-28T11:00:36;29.70;;;14.77;;
55069;SDS011;40967;52.070;8.596;2024-02-28T11:03:06;29.60;;;14.00;;
55069;SDS011;40967;52.070;8.596;2024-02-28T11:05:35;31.00;;;14.23;;
55069;SDS011;40967;52.070;8.596;2024-02-28T11:08:03;32.83;;;15.82;;
55069;SDS011;40967;52.070;8.596;2024-02-28T11:10:31;32.00;;;14.60;;
55069;SDS011;40967;52.070;8.596;2024-02-28T11:13:00;47.80;;;21.25;;
55069;SDS011;40967;52.070;8.596;2024-02-28T11:15:26;34.47;;;16.17;;
55069;SDS011;40967;52.070;8.596;2024-02-28T11:17:53;33.22;;;15.95;;
55069;SDS011;40967;52.070;8.596;2024-02-28T11:20:20;37.28;;;17.08;;
55069;SDS011;40967;52.070;8.596;2024-02-28T11:22:56;32.92;;;15.60;;
55069;SDS011;40967;52.070;8.596;2024-02-28T11:25:24;33.85;;;15.55;;
55069;SDS011;40967;52.070;8.596;2024-02-28T11:27:50;34.17;;;16.60;;
55069;SDS011;40967;52.070;8.596;2024-02-28T11:30:18;36.50;;;16.65;;
55069;SDS011;40967;52.070;8.596;2024-02-28T11:32:45;33.85;;;15.27;;
55069;SDS011;40967;52.070;8.596;2024-02-28T11:35:12;35.00;;;15.60;;
55069;SDS011;40967;52.070;8.596;2024-02-28T11:37:39;34.63;;;15.93;;
55069;SDS011;40967;52.070;8.596;2024-02-28T11:40:14;37.33;;;17.30;;
55069;SDS011;40967;52.070;8.596;2024-02-28T11:42:40;35.45;;;16.25;;
55069;SDS011;40967;52.070;8.596;2024-02-28T11:45:09;28.83;;;13.85;;
55069;SDS011;40967;52.070;8.596;2024-02-28T11:47:37;31.75;;;14.30;;
55069;SDS011;40967;52.070;8.596;2024-02-28T11:50:06;32.75;;;14.93;;
55069;SDS011;40967;52.070;8.596;2024-02-28T11:52:33;32.67;;;14.65;;
55069;SDS011;40967;52.070;8.596;2024-02-28T11:55:00;29.42;;;13.77;;
55069;SDS011;40967;52.070;8.596;2024-02-28T11:57:27;30.40;;;13.80;;
55069;SDS011;40967;52.070;8.596;2024-02-28T11:59:54;32.05;;;14.23;;
55069;SDS011;40967;52.070;8.596;2024-02-28T12:02:22;31.50;;;14.50;;
55069;SDS011;40967;52.070;8.596;2024-02-28T12:04:52;33.78;;;14.90;;
55069;SDS011;40967;52.070;8.596;2024-02-28T12:07:20;32.45;;;15.23;;
55069;SDS011;40967;52.070;8.596;2024-02-28T12:09:47;30.27;;;14.55;;
55069;SDS011;40967;52.070;8.596;2024-02-28T12:12:19;36.83;;;16.20;;
55069;SDS011;40967;52.070;8.596;2024-02-28T12:14:48;36.03;;;16.30;;
55069;SDS011;40967;52.070;8.596;2024-02-28T12:17:14;31.30;;;15.48;;
55069;SDS011;40967;52.070;8.596;2024-02-28T12:19:41;32.13;;;14.73;;
55069;SDS011;40967;52.070;8.596;2024-02-28T12:22:12;31.15;;;14.32;;
55069;SDS011;40967;52.070;8.596;2024-02-28T12:24:39;26.90;;;13.33;;
55069;SDS011;40967;52.070;8.596;2024-02-28T12:27:06;34.45;;;16.30;;
55069;SDS011;40967;52.070;8.596;2024-02-28T12:29:34;35.20;;;16.13;;
55069;SDS011;40967;52.070;8.596;2024-02-28T12:32:01;38.28;;;17.60;;
55069;SDS011;40967;52.070;8.596;2024-02-28T12:34:29;31.92;;;15.32;;
55069;SDS011;40967;52.070;8.596;2024-02-28T12:36:55;34.33;;;16.00;;
55069;SDS011;40967;52.070;8.596;2024-02-28T12:39:24;31.73;;;15.20;;
55069;SDS011;40967;52.070;8.596;2024-02-28T12:41:50;31.08;;;14.57;;
55069;SDS011;40967;52.070;8.596;2024-02-28T12:44:17;30.57;;;14.70;;
55069;SDS011;40967;52.070;8.596;2024-02-28T12:46:44;32.50;;;14.50;;
55069;SDS011;40967;52.070;8.596;2024-02-28T12:49:11;32.03;;;15.40;;
55069;SDS011;40967;52.070;8.596;2024-02-28T12:51:39;30.92;;;14.70;;
55069;SDS011;40967;52.070;8.596;2024-02-28T12:54:06;44.85;;;20.23;;
55069;SDS011;40967;52.070;8.596;2024-02-28T12:56:35;32.65;;;15.52;;
55069;SDS011;40967;52.070;8.596;2024-02-28T12:59:02;28.83;;;14.20;;
55069;SDS011;40967;52.070;8.596;2024-02-28T13:01:29;28.00;;;13.52;;
55069;SDS011;40967;52.070;8.596;2024-02-28T13:03:56;28.52;;;13.60;;
55069;SDS011;40967;52.070;8.596;2024-02-28T13:06:23;26.50;;;12.40;;
55069;SDS011;40967;52.070;8.596;2024-02-28T13:08:52;24.88;;;12.75;;
55069;SDS011;40967;52.070;8.596;2024-02-28T13:11:17;29.07;;;13.70;;
55069;SDS011;40967;52.070;8.596;2024-02-28T13:13:49;28.38;;;13.95;;
55069;SDS011;40967;52.070;8.596;2024-02-28T13:16:17;23.85;;;12.00;;
55069;SDS011;40967;52.070;8.596;2024-02-28T13:18:46;23.70;;;11.10;;
55069;SDS011;40967;52.070;8.596;2024-02-28T13:21:13;24.13;;;11.52;;
55069;SDS011;40967;52.070;8.596;2024-02-28T13:23:43;22.40;;;11.53;;
55069;SDS011;40967;52.070;8.596;2024-02-28T13:26:10;32.63;;;14.93;;
55069;SDS011;40967;52.070;8.596;2024-02-28T13:28:45;25.05;;;12.57;;
55069;SDS011;40967;52.070;8.596;2024-02-28T13:31:14;23.10;;;12.23;;
55069;SDS011;40967;52.070;8.596;2024-02-28T13:33:46;24.67;;;13.10;;
55069;SDS011;40967;52.070;8.596;2024-02-28T13:36:15;25.20;;;12.38;;
55069;SDS011;40967;52.070;8.596;2024-02-28T13:38:42;24.58;;;12.65;;
55069;SDS011;40967;52.070;8.596;2024-02-28T13:41:14;21.75;;;12.00;;
55069;SDS011;40967;52.070;8.596;2024-02-28T13:43:43;25.60;;;12.77;;
55069;SDS011;40967;52.070;8.596;2024-02-28T13:46:12;24.80;;;13.02;;
55069;SDS011;40967;52.070;8.596;2024-02-28T13:48:40;23.80;;;12.60;;
55069;SDS011;40967;52.070;8.596;2024-02-28T13:51:10;22.92;;;11.60;;
55069;SDS011;40967;52.070;8.596;2024-02-28T13:53:37;24.15;;;11.93;;
55069;SDS011;40967;52.070;8.596;2024-02-28T13:56:04;22.55;;;11.98;;
55069;SDS011;40967;52.070;8.596;2024-02-28T13:58:34;23.63;;;11.23;;
55069;SDS011;40967;52.070;8.596;2024-02-28T14:01:04;21.37;;;11.40;;
55069;SDS011;40967;52.070;8.596;2024-02-28T14:03:33;20.77;;;11.00;;
55069;SDS011;40967;52.070;8.596;2024-02-28T14:06:00;19.00;;;10.45;;
55069;SDS011;40967;52.070;8.596;2024-02-28T14:08:30;19.58;;;10.43;;
55069;SDS011;40967;52.070;8.596;2024-02-28T14:10:57;21.03;;;10.83;;
55069;SDS011;40967;52.070;8.596;2024-02-28T14:13:25;18.45;;;10.18;;
55069;SDS011;40967;52.070;8.596;2024-02-28T14:15:54;18.00;;;9.60;;
55069;SDS011;40967;52.070;8.596;2024-02-28T14:18:21;17.83;;;9.80;;
55069;SDS011;40967;52.070;8.596;2024-02-28T14:20:52;16.65;;;9.25;;
55069;SDS011;40967;52.070;8.596;2024-02-28T14:23:18;21.42;;;11.02;;
55069;SDS011;40967;52.070;8.596;2024-02-28T14:25:49;20.25;;;10.88;;
55069;SDS011;40967;52.070;8.596;2024-02-28T14:28:19;18.42;;;10.40;;
55069;SDS011;40967;52.070;8.596;2024-02-28T14:30:52;15.68;;;9.05;;